sensor_id;sensor_type;location;lat;lon;timestamp;P1;durP1;ratioP1;P2;durP2;ratioP2
5678;SDS011;2862;52.560;13.566;2022-07-29T00:09:43;21.10;;;2.37;;
5678;SDS011;2862;52.560;13.566;2022-07-29T00:19:47;26.23;;;2.80;;
5678;SDS011;2862;52.560;13.566;2022-07-29T00:29:50;26.40;;;3.40;;
5678;SDS011;2862;52.560;13.566;2022-07-29T00:39:54;19.10;;;3.10;;
5678;SDS011;2862;52.560;13.566;2022-07-29T00:49:58;27.77;;;3.47;;
5678;SDS011;2862;52.560;13.566;2022-07-29T01:00:02;23.23;;;3.20;;
5678;SDS011;2862;52.560;13.566;2022-07-29T01:10:06;23.00;;;2.80;;
5678;SDS011;2862;52.560;13.566;2022-07-29T01:20:15;22.10;;;2.40;;
5678;SDS011;2862;52.560;13.566;2022-07-29T01:30:23;23.20;;;2.70;;
5678;SDS011;2862;52.560;13.566;2022-07-29T01:40:29;23.40;;;2.50;;
5678;SDS011;2862;52.560;13.566;2022-07-29T01:50:40;18.73;;;2.37;;
5678;SDS011;2862;52.560;13.566;2022-07-29T02:00:48;20.50;;;2.30;;
5678;SDS011;2862;52.560;13.566;2022-07-29T02:10:54;19.97;;;1.73;;
5678;SDS011;2862;52.560;13.566;2022-07-29T02:20:58;25.57;;;2.50;;
5678;SDS011;2862;52.560;13.566;2022-07-29T02:31:04;24.33;;;2.23;;
5678;SDS011;2862;52.560;13.566;2022-07-29T02:41:09;24.23;;;1.93;;
5678;SDS011;2862;52.560;13.566;2022-07-29T02:51:17;27.10;;;2.40;;
5678;SDS011;2862;52.560;13.566;2022-07-29T03:01:26;24.30;;;2.33;;
5678;SDS011;2862;52.560;13.566;2022-07-29T03:11:35;21.43;;;1.90;;
5678;SDS011;2862;52.560;13.566;2022-07-29T03:21:39;18.30;;;1.90;;
5678;SDS011;2862;52.560;13.566;2022-07-29T03:31:43;20.30;;;1.93;;
5678;SDS011;2862;52.560;13.566;2022-07-29T03:41:47;24.90;;;2.30;;
5678;SDS011;2862;52.560;13.566;2022-07-29T03:51:53;19.80;;;1.50;;
5678;SDS011;2862;52.560;13.566;2022-07-29T04:01:57;20.93;;;1.93;;
5678;SDS011;2862;52.560;13.566;2022-07-29T04:12:02;24.30;;;2.10;;
5678;SDS011;2862;52.560;13.566;2022-07-29T04:22:06;30.93;;;2.10;;
5678;SDS011;2862;52.560;13.566;2022-07-29T04:32:10;24.83;;;1.97;;
5678;SDS011;2862;52.560;13.566;2022-07-29T04:42:13;17.43;;;1.30;;
5678;SDS011;2862;52.560;13.566;2022-07-29T04:52:17;22.53;;;1.80;;
5678;SDS011;2862;52.560;13.566;2022-07-29T05:02:20;20.40;;;1.80;;
5678;SDS011;2862;52.560;13.566;2022-07-29T05:12:25;17.77;;;2.20;;
5678;SDS011;2862;52.560;13.566;2022-07-29T05:22:29;28.90;;;1.73;;
5678;SDS011;2862;52.560;13.566;2022-07-29T05:32:33;17.97;;;1.63;;
5678;SDS011;2862;52.560;13.566;2022-07-29T05:42:36;23.97;;;1.63;;
5678;SDS011;2862;52.560;13.566;2022-07-29T05:52:41;19.70;;;1.83;;
5678;SDS011;2862;52.560;13.566;2022-07-29T06:02:44;28.10;;;1.70;;
5678;SDS011;2862;52.560;13.566;2022-07-29T06:12:48;17.20;;;0.70;;
5678;SDS011;2862;52.560;13.566;2022-07-29T06:22:51;21.30;;;2.47;;
5678;SDS011;2862;52.560;13.566;2022-07-29T06:32:55;16.80;;;1.03;;
5678;SDS011;2862;52.560;13.566;2022-07-29T06:42:58;23.23;;;2.57;;
5678;SDS011;2862;52.560;13.566;2022-07-29T06:53:02;22.67;;;1.00;;
5678;SDS011;2862;52.560;13.566;2022-07-29T07:03:05;22.00;;;0.90;;
5678;SDS011;2862;52.560;13.566;2022-07-29T07:13:10;19.70;;;2.00;;
5678;SDS011;2862;52.560;13.566;2022-07-29T07:23:13;19.43;;;1.60;;
5678;SDS011;2862;52.560;13.566;2022-07-29T07:33:17;18.50;;;0.77;;
5678;SDS011;2862;52.560;13.566;2022-07-29T07:43:20;16.90;;;0.90;;
5678;SDS011;2862;52.560;13.566;2022-07-29T07:53:25;21.30;;;1.03;;
5678;SDS011;2862;52.560;13.566;2022-07-29T08:03:28;19.10;;;0.70;;
5678;SDS011;2862;52.560;13.566;2022-07-29T08:13:32;18.50;;;1.47;;
5678;SDS011;2862;52.560;13.566;2022-07-29T08:23:35;15.13;;;0.57;;
5678;SDS011;2862;52.560;13.566;2022-07-29T08:33:41;18.43;;;0.93;;
5678;SDS011;2862;52.560;13.566;2022-07-29T08:43:44;16.83;;;0.80;;
5678;SDS011;2862;52.560;13.566;2022-07-29T08:53:49;16.00;;;0.77;;
5678;SDS011;2862;52.560;13.566;2022-07-29T09:03:54;19.73;;;0.77;;
5678;SDS011;2862;52.560;13.566;2022-07-29T09:13:59;17.50;;;0.87;;
5678;SDS011;2862;52.560;13.566;2022-07-29T09:24:03;23.57;;;1.33;;
5678;SDS011;2862;52.560;13.566;2022-07-29T09:34:11;15.90;;;0.80;;
5678;SDS011;2862;52.560;13.566;2022-07-29T09:44:16;15.97;;;0.70;;
5678;SDS011;2862;52.560;13.566;2022-07-29T09:54:24;17.83;;;0.40;;
5678;SDS011;2862;52.560;13.566;2022-07-29T10:04:37;16.00;;;0.40;;
5678;SDS011;2862;52.560;13.566;2022-07-29T10:14:42;14.63;;;0.60;;
5678;SDS011;2862;52.560;13.566;2022-07-29T10:24:45;13.87;;;0.40;;
5678;SDS011;2862;52.560;13.566;2022-07-29T10:34:55;14.43;;;0.83;;
5678;SDS011;2862;52.560;13.566;2022-07-29T10:45:10;16.63;;;0.97;;
5678;SDS011;2862;52.560;13.566;2022-07-29T11:05:50;16.47;;;0.60;;
5678;SDS011;2862;52.560;13.566;2022-07-29T11:15:56;14.00;;;0.40;;
5678;SDS011;2862;52.560;13.566;2022-07-29T11:26:13;18.03;;;0.70;;
5678;SDS011;2862;52.560;13.566;2022-07-29T11:36:18;16.33;;;0.50;;
5678;SDS011;2862;52.560;13.566;2022-07-29T11:56:56;18.23;;;0.70;;
5678;SDS011;2862;52.560;13.566;2022-07-29T12:06:59;14.10;;;0.60;;
5678;SDS011;2862;52.560;13.566;2022-07-29T12:17:05;16.80;;;0.83;;
5678;SDS011;2862;52.560;13.566;2022-07-29T12:27:08;16.47;;;0.83;;
5678;SDS011;2862;52.560;13.566;2022-07-29T12:37:13;20.20;;;1.07;;
5678;SDS011;2862;52.560;13.566;2022-07-29T12:47:16;17.27;;;1.53;;
5678;SDS011;2862;52.560;13.566;2022-07-29T12:57:21;17.17;;;1.50;;
5678;SDS011;2862;52.560;13.566;2022-07-29T13:07:29;18.07;;;0.90;;
5678;SDS011;2862;52.560;13.566;2022-07-29T13:17:34;16.30;;;0.83;;
5678;SDS011;2862;52.560;13.566;2022-07-29T13:27:44;14.53;;;0.67;;
5678;SDS011;2862;52.560;13.566;2022-07-29T13:37:48;14.23;;;0.73;;
5678;SDS011;2862;52.560;13.566;2022-07-29T13:47:50;17.60;;;2.10;;
5678;SDS011;2862;52.560;13.566;2022-07-29T13:57:55;16.03;;;1.20;;
5678;SDS011;2862;52.560;13.566;2022-07-29T14:07:58;20.47;;;1.30;;
5678;SDS011;2862;52.560;13.566;2022-07-29T14:18:02;14.80;;;1.27;;
5678;SDS011;2862;52.560;13.566;2022-07-29T14:28:05;15.20;;;1.17;;
5678;SDS011;2862;52.560;13.566;2022-07-29T14:38:10;17.07;;;2.00;;
5678;SDS011;2862;52.560;13.566;2022-07-29T14:48:13;15.67;;;1.53;;
5678;SDS011;2862;52.560;13.566;2022-07-29T14:58:17;19.87;;;1.73;;
5678;SDS011;2862;52.560;13.566;2022-07-29T15:08:21;16.73;;;0.97;;
5678;SDS011;2862;52.560;13.566;2022-07-29T15:18:25;18.20;;;0.90;;
5678;SDS011;2862;52.560;13.566;2022-07-29T15:28:28;17.73;;;0.70;;
5678;SDS011;2862;52.560;13.566;2022-07-29T15:38:32;15.67;;;0.80;;
5678;SDS011;2862;52.560;13.566;2022-07-29T15:48:36;21.07;;;0.80;;
5678;SDS011;2862;52.560;13.566;2022-07-29T15:58:42;15.33;;;0.60;;
5678;SDS011;2862;52.560;13.566;2022-07-29T16:08:45;17.53;;;0.80;;
5678;SDS011;2862;52.560;13.566;2022-07-29T16:18:49;14.40;;;1.17;;
5678;SDS011;2862;52.560;13.566;2022-07-29T16:28:52;16.10;;;0.60;;
5678;SDS011;2862;52.560;13.566;2022-07-29T16:38:56;14.80;;;0.90;;
5678;SDS011;2862;52.560;13.566;2022-07-29T16:49:00;17.10;;;0.63;;
5678;SDS011;2862;52.560;13.566;2022-07-29T16:59:06;17.67;;;0.70;;
5678;SDS011;2862;52.560;13.566;2022-07-29T17:09:09;15.10;;;0.80;;
5678;SDS011;2862;52.560;13.566;2022-07-29T17:19:16;17.03;;;0.50;;
5678;SDS011;2862;52.560;13.566;2022-07-29T17:29:19;17.50;;;0.40;;
5678;SDS011;2862;52.560;13.566;2022-07-29T17:39:24;18.00;;;0.50;;
5678;SDS011;2862;52.560;13.566;2022-07-29T17:49:26;19.03;;;0.43;;
5678;SDS011;2862;52.560;13.566;2022-07-29T17:59:31;16.87;;;0.77;;
5678;SDS011;2862;52.560;13.566;2022-07-29T18:09:34;16.63;;;0.50;;
5678;SDS011;2862;52.560;13.566;2022-07-29T18:19:38;16.00;;;0.50;;
5678;SDS011;2862;52.560;13.566;2022-07-29T18:29:41;15.60;;;0.80;;
5678;SDS011;2862;52.560;13.566;2022-07-29T18:39:45;16.37;;;0.50;;
5678;SDS011;2862;52.560;13.566;2022-07-29T18:49:48;17.40;;;0.70;;
5678;SDS011;2862;52.560;13.566;2022-07-29T18:59:53;15.87;;;1.27;;
5678;SDS011;2862;52.560;13.566;2022-07-29T19:09:56;18.00;;;0.70;;
5678;SDS011;2862;52.560;13.566;2022-07-29T19:20:01;18.43;;;0.60;;
5678;SDS011;2862;52.560;13.566;2022-07-29T19:30:04;21.13;;;0.60;;
5678;SDS011;2862;52.560;13.566;2022-07-29T19:40:11;32.97;;;1.47;;
5678;SDS011;2862;52.560;13.566;2022-07-29T19:50:14;19.90;;;0.87;;
5678;SDS011;2862;52.560;13.566;2022-07-29T20:00:19;22.10;;;0.60;;
5678;SDS011;2862;52.560;13.566;2022-07-29T20:10:24;17.93;;;0.80;;
5678;SDS011;2862;52.560;13.566;2022-07-29T20:20:28;26.33;;;2.50;;
5678;SDS011;2862;52.560;13.566;2022-07-29T20:30:31;19.10;;;0.60;;
5678;SDS011;2862;52.560;13.566;2022-07-29T20:40:36;19.30;;;2.20;;
5678;SDS011;2862;52.560;13.566;2022-07-29T20:50:40;15.33;;;0.80;;
5678;SDS011;2862;52.560;13.566;2022-07-29T21:00:47;16.00;;;0.60;;
5678;SDS011;2862;52.560;13.566;2022-07-29T21:10:50;18.87;;;0.50;;
5678;SDS011;2862;52.560;13.566;2022-07-29T21:20:54;20.23;;;0.70;;
5678;SDS011;2862;52.560;13.566;2022-07-29T21:30:58;17.67;;;1.00;;
5678;SDS011;2862;52.560;13.566;2022-07-29T21:41:03;22.13;;;2.10;;
5678;SDS011;2862;52.560;13.566;2022-07-29T21:51:07;22.73;;;1.23;;
5678;SDS011;2862;52.560;13.566;2022-07-29T22:01:11;16.67;;;0.73;;
5678;SDS011;2862;52.560;13.566;2022-07-29T22:11:15;18.33;;;0.93;;
5678;SDS011;2862;52.560;13.566;2022-07-29T22:21:19;17.90;;;0.90;;
5678;SDS011;2862;52.560;13.566;2022-07-29T22:31:22;19.23;;;0.47;;
5678;SDS011;2862;52.560;13.566;2022-07-29T22:41:27;16.17;;;0.50;;
5678;SDS011;2862;52.560;13.566;2022-07-29T22:51:30;18.70;;;0.90;;
5678;SDS011;2862;52.560;13.566;2022-07-29T23:01:35;21.23;;;0.67;;
5678;SDS011;2862;52.560;13.566;2022-07-29T23:11:38;18.00;;;0.73;;
5678;SDS011;2862;52.560;13.566;2022-07-29T23:21:42;15.87;;;0.63;;
5678;SDS011;2862;52.560;13.566;2022-07-29T23:31:45;19.10;;;1.10;;
5678;SDS011;2862;52.560;13.566;2022-07-29T23:41:50;16.67;;;0.53;;
5678;SDS011;2862;52.560;13.566;2022-07-29T23:51:53;21.40;;;0.90;;
